Time;durP1;ratioP1;P1;durP2;ratioP2;P2;SDS_P1;SDS_P2;PMS_P1;PMS_P2;Temp;Humidity;BMP_temperature;BMP_pressure;BME280_temperature;BME280_humidity;BME280_pressure;Samples;Min_cycle;Max_cycle;Signal;HPM_P1;HPM_P2
2023/01/14 00:03:50;;;;;;;110.95;54.95;;;;;;;3.27;87.10;98054.19;10417388;28;20063;-48
2023/01/14 00:08:54;;;;;;;111.55;55.35;;;;;;;3.40;86.87;98058.91;10416750;28;20044;-47
2023/01/14 00:13:53;;;;;;;100.20;52.25;;;;;;;3.53;86.59;98067.00;10416617;28;20068;-48
2023/01/14 00:18:52;;;;;;;97.22;49.08;;;;;;;3.60;87.20;98053.53;10416222;28;20013;-48
2023/01/14 00:23:54;;;;;;;103.88;48.22;;;;;;;3.69;86.79;98048.69;10416318;28;20071;-49
2023/01/14 00:28:53;;;;;;;95.03;47.55;;;;;;;3.72;86.81;98063.31;10413459;28;20072;-49
2023/01/14 00:33:53;;;;;;;80.38;41.38;;;;;;;3.54;86.12;98008.03;10415629;28;20078;-48
2023/01/14 00:38:53;;;;;;;85.03;40.50;;;;;;;3.81;85.97;98053.31;10410269;28;20483;-47
2023/01/14 00:43:56;;;;;;;84.70;41.22;;;;;;;3.73;86.55;98040.25;10413524;28;20068;-47
2023/01/14 00:48:55;;;;;;;84.10;42.13;;;;;;;3.83;86.39;98043.97;10413907;28;20494;-48
2023/01/14 00:53:55;;;;;;;75.53;38.65;;;;;;;3.83;86.16;98042.28;10412490;28;20060;-49
2023/01/14 00:58:54;;;;;;;73.43;36.28;;;;;;;3.88;86.35;98049.25;10414548;28;20059;-46
2023/01/14 01:03:55;;;;;;;;;;;;;;;3.95;86.37;98040.91;10415000;28;20523;-47
2023/01/14 01:09:01;;;;;;;66.72;34.08;;;;;;;3.93;86.37;98035.72;10413162;28;19951;-48
2023/01/14 01:14:00;;;;;;;65.15;33.05;;;;;;;3.88;86.22;98033.84;10412091;28;20068;-47
2023/01/14 01:18:58;;;;;;;67.43;31.92;;;;;;;3.94;85.86;98040.03;10414700;28;20102;-47
2023/01/14 01:23:57;;;;;;;65.38;32.92;;;;;;;3.93;86.08;98028.00;10414689;28;20043;-49
2023/01/14 01:28:57;;;;;;;60.25;28.40;;;;;;;3.90;86.18;98016.78;10413948;28;20116;-47
2023/01/14 01:33:56;;;;;;;55.28;25.50;;;;;;;3.91;86.38;98005.69;10414704;28;20072;-48
2023/01/14 01:38:56;;;;;;;69.38;32.63;;;;;;;4.01;85.49;98023.97;10415120;28;20064;-47
2023/01/14 01:44:11;;;;;;;69.63;31.23;;;;;;;3.87;85.60;98022.72;10422668;28;20059;-47
2023/01/14 01:49:15;;;;;;;65.97;31.35;;;;;;;3.79;86.08;98017.31;10421253;28;20449;-47
2023/01/14 01:54:16;;;;;;;70.63;31.20;;;;;;;3.69;86.61;98017.88;10420718;28;20060;-47
2023/01/14 01:59:21;;;;;;;72.03;32.53;;;;;;;3.43;87.14;98015.38;10420445;28;20063;-47
2023/01/14 02:04:20;;;;;;;66.30;31.48;;;;;;;3.46;87.28;98009.47;10422234;28;20079;-47
2023/01/14 02:09:20;;;;;;;74.10;30.63;;;;;;;3.42;87.15;97989.69;10421119;28;20068;-49
2023/01/14 02:14:18;;;;;;;;;;;;;;;3.57;87.45;98012.38;10420429;28;20048;-48
2023/01/14 02:19:43;;;;;;;73.70;29.15;;;;;;;3.46;87.98;98003.47;10421178;28;19920;-47
2023/01/14 02:24:58;;;;;;;68.95;27.23;;;;;;;3.33;88.14;97995.41;10418389;28;20055;-47
2023/01/14 02:30:08;;;;;;;76.65;29.80;;;;;;;3.46;88.39;97999.22;10418321;28;20067;-47
2023/01/14 02:35:36;;;;;;;69.65;27.63;;;;;;;3.40;88.59;97973.38;10417078;28;20067;-49
2023/01/14 02:41:19;;;;;;;79.32;34.72;;;;;;;3.50;88.16;97993.38;10416792;28;20103;-47
2023/01/14 02:46:29;;;;;;;85.55;34.58;;;;;;;3.48;88.40;97991.59;10345829;28;20580;-50
2023/01/14 02:51:28;;;;;;;80.50;36.60;;;;;;;3.39;88.88;97981.91;10418565;28;20463;-49
2023/01/14 02:56:27;;;;;;;90.90;37.75;;;;;;;3.35;89.21;97986.03;10417086;28;20479;-48
2023/01/14 03:01:38;;;;;;;137.75;38.25;;;;;;;3.31;89.52;97986.81;10417086;28;20033;-49
2023/01/14 03:07:01;;;;;;;103.15;35.92;;;;;;;3.33;89.04;97986.81;10416370;28;20529;-48
2023/01/14 03:12:13;;;;;;;123.32;45.03;;;;;;;3.40;89.32;97988.75;10405378;28;20068;-49
2023/01/14 03:17:44;;;;;;;163.55;49.42;;;;;;;3.28;89.39;97968.72;10414495;28;20062;-49
2023/01/14 03:22:44;;;;;;;208.95;53.95;;;;;;;3.41;89.77;97978.56;10413217;28;20056;-48
2023/01/14 03:27:46;;;;;;;170.07;50.53;;;;;;;3.38;89.67;97981.03;10414446;28;20463;-50
2023/01/14 03:32:53;;;;;;;161.82;52.13;;;;;;;3.44;89.74;97981.19;10416142;28;20470;-47
2023/01/14 03:38:17;;;;;;;112.70;39.95;;;;;;;3.56;89.95;97977.28;10414505;28;20523;-50
2023/01/14 03:43:23;;;;;;;65.28;25.42;;;;;;;3.56;89.73;97954.19;10415825;28;20107;-47
2023/01/14 03:48:23;;;;;;;88.18;30.42;;;;;;;3.67;89.08;97973.34;10415274;28;20550;-49
2023/01/14 03:53:26;;;;;;;65.00;20.48;;;;;;;3.43;88.65;97966.66;10416381;28;20060;-50
2023/01/14 03:58:25;;;;;;;72.57;26.63;;;;;;;3.25;89.55;97962.66;10414304;28;20060;-48
2023/01/14 04:03:27;;;;;;;89.78;30.13;;;;;;;3.02;89.87;97971.34;10413392;28;20028;-47
2023/01/14 04:08:26;;;;;;;75.88;28.23;;;;;;;3.01;90.45;97968.75;10415740;28;20051;-50
2023/01/14 04:18:42;;;;;;;59.88;19.83;;;;;;;3.03;90.22;97972.22;10415903;28;20359;-46
2023/01/14 04:23:41;;;;;;;89.28;26.08;;;;;;;3.11;90.72;97970.78;10414730;28;20466;-47
2023/01/14 04:28:40;;;;;;;64.55;22.85;;;;;;;3.09;90.58;97963.84;10415038;28;20426;-50
2023/01/14 04:33:39;;;;;;;58.75;19.45;;;;;;;2.96;90.84;97962.59;10413051;28;20029;-47
2023/01/14 04:38:38;;;;;;;53.92;18.83;;;;;;;2.82;90.89;97941.66;10413444;28;20510;-48
2023/01/14 04:43:37;;;;;;;43.70;16.08;;;;;;;2.73;90.73;97966.97;10415043;28;20060;-48
2023/01/14 04:48:35;;;;;;;37.35;16.20;;;;;;;2.60;91.18;97968.25;10413270;28;20116;-49
2023/01/14 04:53:34;;;;;;;37.90;16.67;;;;;;;2.33;92.06;97970.75;10415670;28;20111;-49
2023/01/14 04:58:33;;;;;;;47.92;20.55;;;;;;;2.08;92.20;97972.44;10414447;28;20025;-48
2023/01/14 05:03:32;;;;;;;47.38;18.88;;;;;;;2.29;92.00;97974.00;10415521;28;20038;-47
2023/01/14 05:08:31;;;;;;;42.78;17.33;;;;;;;2.07;92.65;97977.50;10413234;28;20115;-49
2023/01/14 05:13:30;;;;;;;53.33;21.10;;;;;;;2.02;92.60;97977.34;10414389;28;20040;-48
2023/01/14 05:18:29;;;;;;;49.15;22.15;;;;;;;1.67;92.84;97924.88;10412598;28;20123;-48
2023/01/14 05:23:28;;;;;;;57.28;23.65;;;;;;;2.22;91.95;97987.41;10414649;28;20064;-46
2023/01/14 05:28:27;;;;;;;;;;;;;;;2.21;92.56;97989.13;10411957;28;20083;-48
2023/01/14 05:33:26;;;;;;;51.53;22.80;;;;;;;2.27;92.01;97996.13;10414246;28;19943;-47
2023/01/14 05:38:26;;;;;;;49.90;22.42;;;;;;;2.01;91.74;97926.94;10371797;28;20050;-47
2023/01/14 05:48:43;;;;;;;61.72;24.98;;;;;;;1.98;91.57;97911.50;10330873;28;20065;-47
2023/01/14 05:53:43;;;;;;;54.53;25.30;;;;;;;2.34;91.28;97969.91;10330448;28;20072;-47
2023/01/14 05:58:42;;;;;;;57.58;23.90;;;;;;;2.49;90.90;98008.88;10328106;28;20069;-47
2023/01/14 06:09:01;;;;;;;55.05;24.88;;;;;;;2.29;92.34;98020.09;10324781;28;20065;-47
2023/01/14 06:14:02;;;;;;;62.47;21.45;;;;;;;2.38;91.95;98033.22;10327286;28;20053;-47
2023/01/14 06:19:01;;;;;;;106.68;49.47;;;;;;;2.46;91.68;98029.25;10314314;28;20058;-47
2023/01/14 06:24:00;;;;;;;59.00;24.50;;;;;;;2.48;91.71;98042.97;10325158;28;20051;-48
2023/01/14 06:29:05;;;;;;;68.88;24.52;;;;;;;2.41;91.70;98038.47;10337808;28;20065;-48
2023/01/14 06:34:05;;;;;;;90.90;35.85;;;;;;;2.47;91.73;98043.81;10337307;28;20496;-47
2023/01/14 06:39:04;;;;;;;62.90;25.88;;;;;;;2.66;92.33;98047.03;10324342;28;20065;-48
2023/01/14 06:44:03;;;;;;;68.60;26.40;;;;;;;2.76;91.70;98061.88;10330490;28;20508;-48
2023/01/14 06:49:02;;;;;;;77.70;26.73;;;;;;;2.88;91.47;98056.31;10336464;28;20036;-47
2023/01/14 06:54:01;;;;;;;65.60;19.52;;;;;;;2.64;91.12;98058.91;10334113;28;21143;-49
2023/01/14 06:59:00;;;;;;;65.10;21.85;;;;;;;2.75;91.12;98065.28;10337311;28;20052;-47
2023/01/14 07:03:59;;;;;;;86.75;23.98;;;;;;;2.69;91.44;98062.50;10336965;28;20041;-49
2023/01/14 07:08:58;;;;;;;66.57;23.15;;;;;;;2.84;91.59;98074.94;10336270;28;20053;-47
2023/01/14 07:13:57;;;;;;;63.55;25.38;;;;;;;2.66;92.08;98054.72;10334704;28;20416;-47
2023/01/14 07:18:56;;;;;;;43.80;18.40;;;;;;;2.70;91.89;98084.72;10335568;28;20068;-47
2023/01/14 07:23:55;;;;;;;44.28;19.05;;;;;;;2.65;91.95;98086.25;10336279;28;20121;-49
2023/01/14 07:28:54;;;;;;;50.10;21.00;;;;;;;2.67;92.46;98094.88;10308054;28;20092;-47
2023/01/14 07:33:53;;;;;;;51.83;24.17;;;;;;;2.59;92.30;98094.59;10334859;28;20065;-47
2023/01/14 07:38:52;;;;;;;48.63;20.73;;;;;;;2.84;92.46;98093.78;10335039;28;20120;-47
2023/01/14 07:43:52;;;;;;;47.10;20.88;;;;;;;3.19;91.57;98101.78;10334129;28;20025;-48
2023/01/14 07:48:51;;;;;;;50.70;22.95;;;;;;;3.38;91.59;98101.59;10335236;28;20045;-48
2023/01/14 07:53:50;;;;;;;55.10;24.00;;;;;;;3.43;91.73;98071.81;10335630;28;20056;-49
2023/01/14 07:58:49;;;;;;;73.78;32.58;;;;;;;3.70;90.97;98090.63;10334410;28;20095;-50
2023/01/14 08:03:47;;;;;;;83.30;35.75;;;;;;;3.83;90.54;98114.16;10334939;28;20087;-50
2023/01/14 08:08:46;;;;;;;50.35;22.45;;;;;;;3.81;89.66;98122.63;10331818;28;20037;-50
2023/01/14 08:13:45;;;;;;;79.75;33.90;;;;;;;3.93;90.34;98135.84;10330409;28;20108;-48
2023/01/14 08:18:44;;;;;;;43.78;20.98;;;;;;;4.13;89.78;98139.03;10329514;28;20044;-47
2023/01/14 08:23:44;;;;;;;51.28;25.88;;;;;;;4.16;88.76;98139.13;10333670;28;20109;-50
2023/01/14 08:28:43;;;;;;;53.00;25.83;;;;;;;4.18;88.84;98140.03;10333903;28;20153;-49
2023/01/14 08:33:43;;;;;;;41.30;22.17;;;;;;;4.02;87.99;98112.16;10333559;28;20105;-49
2023/01/14 08:38:45;;;;;;;36.53;20.45;;;;;;;4.12;87.51;98116.72;10333536;28;20069;-50
2023/01/14 08:43:48;;;;;;;44.33;24.55;;;;;;;4.38;86.03;98148.31;10331181;28;20534;-53
2023/01/14 08:48:47;;;;;;;44.63;27.60;;;;;;;4.40;86.89;98148.38;10331212;28;20068;-48
2023/01/14 08:53:46;;;;;;;49.58;26.42;;;;;;;4.49;86.60;98143.53;10332010;28;20074;-47
2023/01/14 08:58:45;;;;;;;36.17;21.60;;;;;;;4.54;85.42;98141.94;10329686;28;20029;-50
2023/01/14 09:03:45;;;;;;;32.30;19.80;;;;;;;4.44;85.27;98133.09;10311761;28;20069;-50
2023/01/14 09:19:20;;;;;;;50.45;28.13;;;;;;;4.33;83.76;98128.47;10329191;28;20076;-47
2023/01/14 09:24:18;;;;;;;50.25;28.92;;;;;;;4.22;84.07;98131.63;10329917;28;20025;-50
2023/01/14 09:29:17;;;;;;;45.42;25.05;;;;;;;4.25;84.29;98125.69;10328750;28;20116;-48
2023/01/14 09:34:17;;;;;;;63.42;39.33;;;;;;;4.27;84.52;98124.03;10330665;28;20041;-48
2023/01/14 09:39:16;;;;;;;;;;;;;;;4.40;84.66;98117.56;10332262;28;20076;-49
2023/01/14 09:44:15;;;;;;;40.05;20.73;;;;;;;4.42;84.95;98111.63;10330689;28;19949;-48
2023/01/14 09:49:16;;;;;;;;;;;;;;;4.62;83.94;98107.06;10332606;28;20061;-49
2023/01/14 09:55:10;;;;;;;46.45;26.13;;;;;;;4.69;83.23;98106.41;10331033;28;19963;-48
2023/01/14 10:00:31;;;;;;;47.58;29.83;;;;;;;4.85;82.49;98106.81;10328508;28;20560;-48
2023/01/14 10:05:33;;;;;;;54.78;31.92;;;;;;;4.83;83.13;98116.19;10337330;28;20468;-50
2023/01/14 10:10:36;;;;;;;54.65;32.50;;;;;;;4.96;82.17;98115.72;10337178;28;20134;-50
2023/01/14 10:15:37;;;;;;;49.55;26.25;;;;;;;4.99;81.29;98104.66;10338849;28;20064;-48
2023/01/14 10:20:48;;;;;;;49.22;27.83;;;;;;;5.19;81.22;98100.03;10331415;28;20124;-50
2023/01/14 10:25:52;;;;;;;47.35;29.75;;;;;;;5.12;80.85;98089.59;10336945;28;20075;-48
2023/01/14 10:30:52;;;;;;;49.42;27.98;;;;;;;5.07;80.46;98086.03;10336053;28;20080;-48
2023/01/14 10:35:59;;;;;;;46.67;26.20;;;;;;;5.09;79.38;98053.50;10337972;28;20076;-49
2023/01/14 10:41:02;;;;;;;46.90;28.65;;;;;;;5.32;79.30;98086.63;10338392;28;20543;-47
2023/01/14 10:46:01;;;;;;;51.65;29.35;;;;;;;5.34;79.18;98072.09;10335246;28;20841;-48
2023/01/14 10:51:29;;;;;;;50.42;31.15;;;;;;;5.40;79.20;98067.13;10324793;28;20056;-50
2023/01/14 10:56:29;;;;;;;75.90;44.38;;;;;;;5.50;78.42;98063.06;10328978;28;20091;-48
2023/01/14 11:01:28;;;;;;;59.08;36.22;;;;;;;5.55;78.56;98054.63;10337012;28;20583;-49
2023/01/14 11:06:30;;;;;;;51.13;28.65;;;;;;;5.29;78.63;98011.94;10336505;28;20548;-50
2023/01/14 11:11:38;;;;;;;54.30;34.10;;;;;;;5.07;78.62;98003.72;10367213;28;20075;-51
2023/01/14 11:16:38;;;;;;;55.42;34.72;;;;;;;4.84;78.53;97973.97;10334881;28;20078;-48
2023/01/14 11:21:50;;;;;;;50.42;31.67;;;;;;;5.47;77.27;98057.84;10336297;28;20077;-48
2023/01/14 11:26:58;;;;;;;46.45;27.48;;;;;;;5.39;77.88;98057.69;10335952;28;20117;-49
2023/01/14 11:32:24;;;;;;;43.38;24.10;;;;;;;5.61;77.81;98058.19;10330701;28;20065;-48
2023/01/14 11:37:29;;;;;;;36.45;22.30;;;;;;;5.61;76.77;98050.47;10333536;28;20075;-50
2023/01/14 11:42:37;;;;;;;32.42;18.35;;;;;;;5.55;75.65;98007.41;10335419;28;20065;-48
2023/01/14 11:47:48;;;;;;;41.60;23.85;;;;;;;5.50;75.29;97996.16;10335219;28;20083;-48
2023/01/14 11:52:59;;;;;;;35.28;18.77;;;;;;;5.66;76.12;98043.72;10334757;28;20069;-47
2023/01/14 11:58:25;;;;;;;34.92;20.88;;;;;;;5.90;76.71;98045.97;10335759;28;20069;-47
2023/01/14 12:03:34;;;;;;;28.70;15.88;;;;;;;5.96;76.65;98046.97;10314809;28;20065;-48
2023/01/14 12:08:35;;;;;;;32.53;16.65;;;;;;;6.17;76.08;98041.41;10320230;28;20073;-48
2023/01/14 12:19:05;;;;;;;23.60;14.82;;;;;;;6.18;75.58;98055.16;10318501;28;20049;-49
2023/01/14 12:24:14;;;;;;;36.05;22.38;;;;;;;6.05;75.89;98054.03;10331728;28;20531;-48
2023/01/14 12:29:23;;;;;;;30.25;17.48;;;;;;;5.97;75.65;98056.41;10331338;28;20753;-50
2023/01/14 12:34:48;;;;;;;28.85;17.95;;;;;;;6.00;75.05;98047.03;10332565;28;20068;-50
2023/01/14 12:45:41;;;;;;;18.00;10.70;;;;;;;5.72;75.10;98072.19;10329594;28;20069;-50
2023/01/14 12:50:52;;;;;;;20.52;12.48;;;;;;;5.79;74.48;98079.22;10330536;28;20049;-51
2023/01/14 12:55:54;;;;;;;20.83;12.90;;;;;;;5.83;74.79;98086.16;10320516;28;20059;-49
2023/01/14 13:00:56;;;;;;;16.73;9.23;;;;;;;5.66;74.95;98093.50;10330441;28;20462;-47
2023/01/14 13:05:55;;;;;;;18.08;10.38;;;;;;;5.75;75.34;98080.84;10327467;28;20056;-48
2023/01/14 13:11:13;;;;;;;55.97;27.75;;;;;;;5.83;75.57;98086.16;10329570;28;20107;-50
2023/01/14 13:16:33;;;;;;;21.40;13.15;;;;;;;6.20;76.31;98079.25;10329487;28;20072;-49
2023/01/14 13:22:02;;;;;;;23.33;13.27;;;;;;;6.42;75.95;98084.84;10318903;28;20141;-48
2023/01/14 13:27:38;;;;;;;47.58;27.65;;;;;;;6.66;75.25;98084.50;10325337;28;20484;-49
2023/01/14 13:32:58;;;;;;;30.00;19.58;;;;;;;6.91;74.01;98090.97;10285477;28;20561;-50
2023/01/14 13:38:02;;;;;;;27.70;17.90;;;;;;;6.84;73.02;98082.25;10336898;28;20061;-50
2023/01/14 13:43:16;;;;;;;32.88;20.08;;;;;;;6.96;73.74;98081.59;10337694;28;20064;-49
2023/01/14 13:48:20;;;;;;;29.90;17.33;;;;;;;6.92;72.33;98077.25;10333613;28;20071;-51
2023/01/14 13:53:27;;;;;;;23.77;14.68;;;;;;;6.89;72.20;98085.81;10329501;28;20068;-48
2023/01/14 13:58:34;;;;;;;20.48;13.13;;;;;;;6.99;72.03;98079.97;10331865;28;20156;-48
2023/01/14 14:03:36;;;;;;;26.17;13.05;;;;;;;7.00;72.33;98080.81;10329981;28;20128;-51
2023/01/14 14:08:36;;;;;;;23.90;14.88;;;;;;;6.95;72.48;98061.81;10330314;28;20123;-48
2023/01/14 14:19:01;;;;;;;36.08;22.60;;;;;;;7.08;71.72;98068.06;10314523;28;20120;-50
2023/01/14 14:24:04;;;;;;;44.10;26.55;;;;;;;6.85;72.24;98039.28;10330127;28;20125;-49
2023/01/14 14:29:12;;;;;;;26.60;16.80;;;;;;;6.92;71.31;98075.53;10332655;28;20164;-50
2023/01/14 14:34:21;;;;;;;22.38;13.93;;;;;;;6.34;71.01;97984.19;10336428;28;20081;-50
2023/01/14 14:39:37;;;;;;;26.92;16.17;;;;;;;6.86;69.78;98077.13;10331408;28;20069;-49
2023/01/14 14:44:36;;;;;;;34.05;21.08;;;;;;;6.82;69.65;98077.06;10324585;28;20124;-50
2023/01/14 14:49:36;;;;;;;36.38;23.08;;;;;;;6.58;71.21;98092.06;10314503;28;20048;-48
2023/01/14 14:54:36;;;;;;;36.80;22.60;;;;;;;6.40;72.48;98085.69;10335779;28;20072;-48
2023/01/14 14:59:38;;;;;;;40.88;26.45;;;;;;;6.45;73.11;98084.94;10323327;28;20465;-48
2023/01/14 15:04:38;;;;;;;38.90;23.50;;;;;;;6.29;72.87;98083.75;10333248;28;20072;-47
2023/01/14 15:09:37;;;;;;;48.33;32.90;;;;;;;5.90;74.04;98025.34;10332256;28;20072;-49
2023/01/14 15:14:36;;;;;;;69.55;39.50;;;;;;;6.24;73.43;98078.47;10333614;28;20115;-49
2023/01/14 15:19:37;;;;;;;58.33;33.60;;;;;;;6.08;74.25;98089.28;10330039;28;20151;-48
2023/01/14 15:24:37;;;;;;;56.67;34.45;;;;;;;6.02;74.78;98090.00;10333288;28;20073;-50
2023/01/14 15:29:36;;;;;;;53.20;34.22;;;;;;;5.79;76.32;98106.66;10331024;28;20077;-50
2023/01/14 15:34:35;;;;;;;;;;;;;;;5.57;76.91;98113.84;10332074;28;20065;-49
2023/01/14 15:39:41;;;;;;;49.55;30.75;;;;;;;5.49;77.62;98113.69;10330389;28;19916;-48
2023/01/14 15:44:45;;;;;;;64.93;35.92;;;;;;;5.44;78.74;98119.53;10332403;28;20064;-48
2023/01/14 15:49:50;;;;;;;62.50;35.22;;;;;;;5.37;79.62;98122.78;10331496;28;20060;-49
2023/01/14 15:54:49;;;;;;;64.70;36.83;;;;;;;5.41;79.59;98135.75;10333206;28;20060;-48
2023/01/14 16:00:10;;;;;;;63.25;34.78;;;;;;;5.33;79.82;98137.28;10317020;28;20041;-48
2023/01/14 16:05:27;;;;;;;51.72;27.17;;;;;;;5.29;80.28;98144.03;10332225;28;20132;-48
2023/01/14 16:10:27;;;;;;;45.28;25.42;;;;;;;5.20;81.17;98142.94;10331168;28;20068;-49
2023/01/14 16:15:31;;;;;;;45.20;29.02;;;;;;;5.25;80.98;98149.06;10332400;28;20080;-49
2023/01/14 16:20:30;;;;;;;44.38;27.77;;;;;;;5.41;80.65;98153.78;10330764;28;20064;-47
2023/01/14 16:25:30;;;;;;;46.20;29.25;;;;;;;5.27;80.25;98107.09;10332194;28;20063;-47
2023/01/14 16:30:29;;;;;;;52.58;31.98;;;;;;;5.63;79.62;98162.06;10330515;28;20080;-50
2023/01/14 16:35:28;;;;;;;55.25;33.75;;;;;;;5.68;79.58;98170.78;10331651;28;20069;-48
2023/01/14 16:40:30;;;;;;;59.20;36.72;;;;;;;5.76;79.43;98171.81;10328554;28;20041;-49
2023/01/14 16:45:29;;;;;;;66.68;39.10;;;;;;;5.77;79.32;98158.13;10324396;28;20076;-50
2023/01/14 16:50:28;;;;;;;72.25;41.45;;;;;;;5.88;78.99;98173.81;10329781;28;20125;-49
2023/01/14 16:55:29;;;;;;;73.25;44.55;;;;;;;5.88;78.80;98174.72;10330399;28;20088;-47
2023/01/14 17:00:31;;;;;;;70.95;42.40;;;;;;;5.48;78.83;98111.06;10329776;28;20064;-48
2023/01/14 17:05:30;;;;;;;78.95;43.85;;;;;;;5.66;78.50;98136.41;10330417;28;20060;-48
2023/01/14 17:10:29;;;;;;;101.60;57.67;;;;;;;5.87;77.96;98198.72;10325981;28;20144;-50
2023/01/14 17:15:28;;;;;;;85.07;51.95;;;;;;;5.71;78.84;98199.16;10322376;28;20212;-47
2023/01/14 17:20:28;;;;;;;107.78;61.85;;;;;;;5.66;79.50;98200.75;10328922;28;20037;-50
2023/01/14 17:25:28;;;;;;;100.20;54.33;;;;;;;5.48;79.21;98190.84;10330491;28;20160;-49
2023/01/14 17:30:28;;;;;;;54.95;36.53;;;;;;;5.54;79.15;98215.06;10328445;28;20073;-48
2023/01/14 17:35:28;;;;;;;62.70;41.78;;;;;;;5.62;79.06;98209.22;10323343;28;20563;-49
2023/01/14 17:40:32;;;;;;;60.67;39.75;;;;;;;5.64;79.82;98197.28;10322878;28;20116;-48
2023/01/14 17:45:31;;;;;;;64.00;38.60;;;;;;;5.63;79.07;98175.81;10329545;28;20076;-49
2023/01/14 17:50:31;;;;;;;;;;;;;;;5.85;78.83;98197.81;10326218;28;20075;-48
2023/01/14 17:55:30;;;;;;;89.93;53.10;;;;;;;5.84;79.37;98190.06;10328589;28;20410;-48
2023/01/14 18:00:29;;;;;;;86.60;51.30;;;;;;;5.84;79.18;98184.91;10327250;28;20820;-48
2023/01/14 18:05:28;;;;;;;87.25;51.47;;;;;;;5.88;79.27;98205.63;10316733;28;20538;-49
2023/01/14 18:10:27;;;;;;;70.45;41.47;;;;;;;5.91;79.43;98200.53;10311879;28;20462;-50
2023/01/14 18:15:28;;;;;;;;;;;;;;;5.91;79.17;98197.97;10316684;28;20092;-48
2023/01/14 18:20:28;;;;;;;84.07;50.50;;;;;;;5.89;78.68;98189.31;10317447;28;20436;-48
2023/01/14 18:25:27;;;;;;;102.22;60.80;;;;;;;5.87;79.01;98198.72;10331055;28;20080;-48
2023/01/14 18:30:29;;;;;;;95.25;55.60;;;;;;;5.87;79.64;98208.16;10335264;28;20048;-50
2023/01/14 18:35:29;;;;;;;94.40;57.72;;;;;;;5.33;79.27;98125.28;10336188;28;20087;-48
2023/01/14 18:40:28;;;;;;;98.85;59.40;;;;;;;5.84;79.87;98213.25;10334051;28;20061;-49
2023/01/14 18:45:28;;;;;;;106.05;61.33;;;;;;;5.50;79.28;98151.44;10335166;28;20037;-50
2023/01/14 18:50:27;;;;;;;106.22;63.17;;;;;;;5.87;79.12;98216.75;10334656;28;20504;-47
2023/01/14 18:55:26;;;;;;;97.22;55.60;;;;;;;5.91;79.58;98215.13;10335278;28;20816;-50
2023/01/14 19:00:26;;;;;;;87.90;53.30;;;;;;;5.90;79.38;98209.09;10332447;28;20377;-48
2023/01/14 19:05:24;;;;;;;96.13;55.30;;;;;;;5.87;79.33;98209.03;10334829;28;20537;-50
2023/01/14 19:10:23;;;;;;;82.07;46.83;;;;;;;5.80;79.24;98201.97;10333726;28;20119;-47
2023/01/14 19:15:23;;;;;;;78.57;44.97;;;;;;;5.88;78.74;98199.59;10333655;28;20064;-48
2023/01/14 19:20:24;;;;;;;82.50;50.58;;;;;;;5.69;79.11;98167.34;10333784;28;20092;-48
2023/01/14 19:25:22;;;;;;;92.88;55.92;;;;;;;5.87;78.56;98211.59;10334898;28;20080;-47
2023/01/14 19:30:21;;;;;;;109.60;65.68;;;;;;;5.86;78.98;98207.28;10329638;28;20280;-49
2023/01/14 19:35:20;;;;;;;95.22;55.78;;;;;;;5.72;79.87;98195.78;10332114;28;20529;-50
2023/01/14 19:40:19;;;;;;;140.50;84.40;;;;;;;5.63;80.43;98214.44;10331206;28;20124;-50
2023/01/14 19:45:18;;;;;;;138.35;66.65;;;;;;;5.60;80.66;98210.88;10330697;28;20124;-48
2023/01/14 19:50:18;;;;;;;135.90;64.50;;;;;;;5.66;80.92;98211.06;10330493;28;20124;-48
2023/01/14 19:55:17;;;;;;;110.72;51.67;;;;;;;5.66;80.50;98214.50;10331441;28;20458;-48
2023/01/14 20:00:16;;;;;;;100.38;52.05;;;;;;;5.64;81.06;98208.44;10329988;28;20495;-48
2023/01/14 20:05:16;;;;;;;94.03;49.42;;;;;;;5.60;80.77;98213.47;10329699;28;20063;-48
2023/01/14 20:10:15;;;;;;;106.25;52.22;;;;;;;5.61;81.38;98216.09;10329732;28;20061;-50
2023/01/14 20:15:14;;;;;;;89.97;46.85;;;;;;;5.65;81.41;98217.91;10329541;28;20061;-47
2023/01/14 20:20:17;;;;;;;88.80;48.08;;;;;;;5.67;80.90;98215.38;10330911;28;20071;-50
2023/01/14 20:25:16;;;;;;;90.70;48.25;;;;;;;5.69;81.65;98218.84;10344041;28;20067;-50
2023/01/14 20:30:15;;;;;;;93.65;50.08;;;;;;;5.73;80.96;98220.69;10327920;28;20514;-48
2023/01/14 20:35:14;;;;;;;;;;;;;;;5.68;80.92;98218.00;10329824;28;20496;-49
2023/01/14 20:40:13;;;;;;;89.53;50.30;;;;;;;5.69;81.35;98224.00;10328190;28;20462;-48
2023/01/14 20:45:13;;;;;;;83.43;44.85;;;;;;;5.71;80.87;98228.34;10327704;28;20057;-47
2023/01/14 20:50:11;;;;;;;92.45;53.08;;;;;;;5.69;80.93;98226.56;10329228;28;20448;-50
2023/01/14 20:55:10;;;;;;;97.00;54.65;;;;;;;5.66;81.59;98234.22;10329251;28;20483;-49
2023/01/14 21:00:10;;;;;;;114.00;65.25;;;;;;;5.47;81.55;98233.75;10328152;28;20467;-49
2023/01/14 21:05:10;;;;;;;120.68;77.25;;;;;;;5.38;81.79;98201.75;10327945;28;20075;-50
2023/01/14 21:10:09;;;;;;;76.80;47.40;;;;;;;5.59;81.91;98233.19;10327545;28;20069;-47
2023/01/14 21:25:43;;;;;;;82.25;49.67;;;;;;;5.54;82.16;98243.38;10328534;28;20500;-48
2023/01/14 21:30:45;;;;;;;56.90;33.92;;;;;;;5.40;82.43;98247.28;10326763;28;20045;-50
2023/01/14 21:35:45;;;;;;;58.97;35.75;;;;;;;5.47;82.03;98259.47;10327916;28;20068;-48
2023/01/14 21:43:24;;;;;;;89.97;50.15;;;;;;;5.35;82.58;98259.16;10326069;28;20496;-51
2023/01/14 21:46:07;;;;;;;130.57;69.60;;;;;;;5.43;82.82;98255.06;10327496;28;20053;-50
2023/01/14 21:51:12;;;;;;;221.18;119.20;;;;;;;5.52;82.78;98246.75;10325518;28;20065;-50
2023/01/14 21:56:11;;;;;;;57.40;32.65;;;;;;;5.54;82.94;98260.53;10326759;28;20133;-51
2023/01/14 22:01:11;;;;;;;48.55;29.23;;;;;;;5.53;82.88;98263.91;10327129;28;20112;-49
2023/01/14 22:06:12;;;;;;;100.50;54.28;;;;;;;5.60;82.62;98259.81;10331062;28;20072;-50
2023/01/14 22:11:16;;;;;;;60.83;34.95;;;;;;;5.60;82.51;98249.50;10332662;28;20128;-50
2023/01/14 22:16:15;;;;;;;50.17;30.73;;;;;;;5.57;81.77;98249.44;10329330;28;20072;-49
2023/01/14 22:21:14;;;;;;;61.63;35.67;;;;;;;5.55;82.62;98254.53;10329161;28;20045;-50
2023/01/14 22:26:13;;;;;;;67.50;40.55;;;;;;;5.54;82.60;98251.09;10330469;28;20475;-47
2023/01/14 22:31:12;;;;;;;68.15;42.25;;;;;;;5.57;82.13;98254.59;10324586;28;20042;-49
2023/01/14 22:36:11;;;;;;;74.45;44.30;;;;;;;5.36;82.23;98224.00;10324611;28;20124;-50
2023/01/14 22:41:10;;;;;;;77.82;47.60;;;;;;;5.42;82.11;98263.63;10327521;28;20080;-48
2023/01/14 22:46:10;;;;;;;85.38;50.88;;;;;;;5.25;83.29;98237.44;10327340;28;20125;-49
2023/01/14 22:51:09;;;;;;;81.15;53.30;;;;;;;5.37;83.36;98251.44;10330981;28;20053;-48
2023/01/14 22:56:11;;;;;;;92.75;53.38;;;;;;;5.37;82.95;98244.63;10330162;28;20065;-47
2023/01/14 23:01:20;;;;;;;69.60;42.35;;;;;;;5.51;83.02;98248.44;10330019;28;20477;-48
2023/01/14 23:06:19;;;;;;;73.55;42.55;;;;;;;5.46;82.69;98226.88;10332793;28;20065;-49
2023/01/14 23:11:19;;;;;;;82.00;47.55;;;;;;;5.48;82.85;98250.91;10332289;28;20041;-49
2023/01/14 23:27:01;;;;;;;83.45;49.20;;;;;;;5.32;82.75;98197.28;10348234;28;20073;-47
2023/01/14 23:32:00;;;;;;;80.20;48.10;;;;;;;5.49;83.02;98228.66;10331740;28;20492;-50
2023/01/14 23:37:07;;;;;;;99.88;57.63;;;;;;;5.51;83.63;98224.41;10332907;28;20648;-50
2023/01/14 23:42:17;;;;;;;78.82;50.08;;;;;;;5.58;82.50;98225.41;10333183;28;20863;-48
2023/01/14 23:47:16;;;;;;;75.97;47.45;;;;;;;5.60;82.34;98232.34;10330482;28;20127;-49
2023/01/14 23:52:15;;;;;;;71.85;43.20;;;;;;;5.62;83.00;98220.38;10332759;28;20060;-50
2023/01/14 23:57:14;;;;;;;86.85;50.22;;;;;;;5.27;82.52;98156.00;10332501;28;20465;-48
